Time;durP1;ratioP1;P1;durP2;ratioP2;P2;SDS_P1;SDS_P2;PMS_P1;PMS_P2;Temp;Humidity;BMP_temperature;BMP_pressure;BME280_temperature;BME280_humidity;BME280_pressure;Samples;Min_cycle;Max_cycle;Signal;HPM_P1;HPM_P2
2023/10/08 00:00:53;;;;;;;7.93;4.63;;;20.10;99.90;;;;;;2099375;28;20455;-73
2023/10/08 00:01:55;;;;;;;10.48;5.13;;;20.10;99.90;;;;;;2099444;28;20071;-73
2023/10/08 00:02:56;;;;;;;9.00;4.90;;;20.10;99.90;;;;;;2099957;28;20046;-73
2023/10/08 00:03:58;;;;;;;8.98;4.30;;;20.10;99.90;;;;;;2100822;28;20085;-74
2023/10/08 00:05:00;;;;;;;7.80;4.43;;;20.10;99.90;;;;;;2091791;28;20036;-73
2023/10/08 00:06:06;;;;;;;7.75;4.30;;;20.10;99.90;;;;;;2096637;28;20462;-73
2023/10/08 00:07:07;;;;;;;7.57;4.90;;;20.10;99.90;;;;;;2098378;28;20036;-74
2023/10/08 00:08:12;;;;;;;8.48;4.82;;;20.10;99.90;;;;;;2100606;28;20021;-73
2023/10/08 00:09:14;;;;;;;10.88;4.80;;;20.10;99.90;;;;;;2099565;28;20015;-73
2023/10/08 00:10:15;;;;;;;6.05;4.28;;;20.10;99.90;;;;;;2099756;28;20059;-73
2023/10/08 00:11:19;;;;;;;8.30;4.63;;;20.00;99.90;;;;;;2099755;28;20031;-73
2023/10/08 00:12:20;;;;;;;8.15;4.95;;;20.10;99.90;;;;;;2097489;28;20107;-73
2023/10/08 00:13:21;;;;;;;8.55;4.57;;;20.10;99.90;;;;;;2099674;28;20074;-73
2023/10/08 00:14:24;;;;;;;7.05;5.00;;;20.10;99.90;;;;;;2098078;28;20013;-73
2023/10/08 00:15:25;;;;;;;8.30;4.40;;;20.10;99.90;;;;;;2101646;28;20017;-74
2023/10/08 00:16:28;;;;;;;9.65;5.15;;;20.00;99.90;;;;;;2100984;28;20563;-73
2023/10/08 00:17:28;;;;;;;6.85;4.78;;;20.00;99.90;;;;;;2099252;28;20013;-74
2023/10/08 00:18:29;;;;;;;7.75;4.90;;;20.00;99.90;;;;;;2099642;28;20039;-73
2023/10/08 00:19:36;;;;;;;9.23;4.80;;;20.00;99.90;;;;;;2097361;28;20109;-73
2023/10/08 00:20:47;;;;;;;7.18;4.68;;;20.00;99.90;;;;;;2100126;28;20050;-73
2023/10/08 00:21:48;;;;;;;9.27;5.10;;;20.00;99.90;;;;;;2099180;28;20499;-73
2023/10/08 00:22:49;;;;;;;18.42;5.85;;;20.00;99.90;;;;;;2099333;28;20151;-73
2023/10/08 00:23:52;;;;;;;9.23;4.90;;;20.00;99.90;;;;;;2098659;28;20035;-73
2023/10/08 00:24:57;;;;;;;10.90;5.38;;;20.00;99.90;;;;;;2097671;28;20036;-74
2023/10/08 00:26:04;;;;;;;6.57;4.93;;;20.00;99.90;;;;;;2097998;28;20055;-74
2023/10/08 00:27:06;;;;;;;8.35;4.65;;;20.00;99.90;;;;;;2097644;28;20150;-73
2023/10/08 00:28:13;;;;;;;8.25;5.10;;;19.90;99.90;;;;;;2098382;28;20032;-73
2023/10/08 00:29:17;;;;;;;11.05;4.90;;;19.90;99.90;;;;;;2098452;28;20055;-73
2023/10/08 00:30:17;;;;;;;8.60;4.78;;;19.90;99.90;;;;;;2097601;28;20415;-73
2023/10/08 00:31:18;;;;;;;7.00;4.68;;;19.90;99.90;;;;;;2097826;28;20036;-73
2023/10/08 00:32:21;;;;;;;9.32;5.20;;;19.90;99.90;;;;;;2097023;28;20103;-74
2023/10/08 00:33:22;;;;;;;7.82;5.10;;;19.90;99.90;;;;;;2098322;28;20134;-73
2023/10/08 00:34:29;;;;;;;7.78;5.00;;;19.90;99.90;;;;;;2097688;28;20025;-73
2023/10/08 00:35:29;;;;;;;7.45;4.97;;;19.90;99.90;;;;;;2098411;28;20026;-73
2023/10/08 00:36:30;;;;;;;7.93;4.65;;;19.90;99.90;;;;;;2097361;28;20024;-73
2023/10/08 00:37:31;;;;;;;6.53;4.35;;;19.90;99.90;;;;;;2098976;28;20036;-73
2023/10/08 00:38:32;;;;;;;10.30;4.95;;;19.90;99.90;;;;;;2099814;28;20024;-73
2023/10/08 00:39:37;;;;;;;9.27;5.05;;;19.90;99.90;;;;;;2097020;28;20476;-73
2023/10/08 00:40:39;;;;;;;7.05;4.18;;;19.90;99.90;;;;;;2097794;28;20024;-73
2023/10/08 00:41:44;;;;;;;12.32;5.22;;;19.90;99.90;;;;;;2097698;28;20036;-73
2023/10/08 00:42:48;;;;;;;13.00;5.28;;;19.90;99.90;;;;;;2097848;28;20042;-73
2023/10/08 00:43:49;;;;;;;6.20;4.40;;;19.90;99.90;;;;;;2098984;28;20032;-74
2023/10/08 00:44:51;;;;;;;7.45;4.90;;;19.90;99.90;;;;;;2097760;28;20029;-73
2023/10/08 00:45:52;;;;;;;7.80;4.72;;;19.90;99.90;;;;;;2096975;28;20025;-73
2023/10/08 00:46:55;;;;;;;7.60;4.68;;;19.90;99.90;;;;;;2098516;28;20559;-73
2023/10/08 00:47:56;;;;;;;8.48;4.93;;;19.90;99.90;;;;;;2097728;28;20028;-73
2023/10/08 00:49:02;;;;;;;8.48;4.85;;;19.90;99.90;;;;;;2097643;28;20020;-73
2023/10/08 00:50:06;;;;;;;11.82;4.95;;;19.90;99.90;;;;;;2098409;28;20118;-73
2023/10/08 00:51:25;;;;;;;8.63;4.72;;;19.90;99.90;;;;;;2098457;28;20051;-73
2023/10/08 00:52:26;;;;;;;8.32;4.90;;;19.90;99.90;;;;;;2097105;28;20020;-73
2023/10/08 00:53:28;;;;;;;8.15;5.57;;;19.80;99.90;;;;;;2099437;28;20633;-73
2023/10/08 00:54:28;;;;;;;7.72;4.90;;;19.80;99.90;;;;;;2097017;28;20426;-73
2023/10/08 00:55:30;;;;;;;11.73;5.03;;;19.80;99.90;;;;;;2095749;28;20103;-73
2023/10/08 00:56:49;;;;;;;8.88;5.03;;;19.80;99.90;;;;;;2098931;28;20333;-74
2023/10/08 00:57:57;;;;;;;7.38;5.25;;;19.80;99.90;;;;;;2096823;28;20050;-73
2023/10/08 00:58:59;;;;;;;8.88;4.82;;;19.70;99.90;;;;;;2100085;28;20493;-73
2023/10/08 01:00:00;;;;;;;7.50;4.25;;;19.70;99.90;;;;;;2102181;28;20108;-74
2023/10/08 01:01:02;;;;;;;9.30;4.93;;;19.70;99.90;;;;;;2096510;28;20070;-73
2023/10/08 01:02:14;;;;;;;7.95;4.90;;;19.80;99.90;;;;;;2097500;28;20024;-73
2023/10/08 01:03:19;;;;;;;7.53;4.80;;;19.70;99.90;;;;;;2097997;28;20107;-73
2023/10/08 01:04:26;;;;;;;6.43;4.32;;;19.70;99.90;;;;;;2096922;28;20087;-73
2023/10/08 01:06:10;;;;;;;8.73;4.70;;;19.70;99.90;;;;;;2098726;28;20023;-74
2023/10/08 01:07:00;;;;;;;15.35;5.85;;;19.70;99.90;;;;;;2093460;28;20036;-73
2023/10/08 01:08:05;;;;;;;8.88;5.00;;;19.70;99.90;;;;;;2099392;28;20075;-73
2023/10/08 01:09:18;;;;;;;7.80;4.80;;;19.70;99.90;;;;;;2098494;28;20025;-73
2023/10/08 01:10:21;;;;;;;8.13;4.85;;;19.70;99.90;;;;;;2098951;28;20108;-73
2023/10/08 01:11:31;;;;;;;9.10;5.57;;;19.70;99.90;;;;;;2095634;28;20114;-73
2023/10/08 01:12:43;;;;;;;12.88;5.05;;;19.70;99.90;;;;;;2094833;28;20031;-74
2023/10/08 01:13:45;;;;;;;9.32;5.00;;;19.70;99.90;;;;;;2100408;28;20032;-73
2023/10/08 01:14:53;;;;;;;10.15;5.10;;;19.70;99.90;;;;;;2097984;28;20452;-74
2023/10/08 01:15:55;;;;;;;11.18;5.43;;;19.70;99.90;;;;;;2097907;28;20031;-73
2023/10/08 01:16:55;;;;;;;11.20;4.88;;;19.70;99.90;;;;;;2097796;28;20020;-73
2023/10/08 01:18:06;;;;;;;5.93;4.43;;;19.70;99.90;;;;;;2098611;28;20035;-73
2023/10/08 01:19:12;;;;;;;;;;;19.70;99.90;;;;;;2099258;28;20021;-73
2023/10/08 01:20:36;;;;;;;8.10;5.10;;;19.60;99.90;;;;;;2098487;28;20003;-73
2023/10/08 01:21:39;;;;;;;8.65;5.03;;;19.60;99.90;;;;;;2096953;28;20031;-73
2023/10/08 01:22:40;;;;;;;9.90;5.25;;;19.60;99.90;;;;;;2097665;28;20418;-74
2023/10/08 01:23:42;;;;;;;8.88;4.82;;;19.60;99.90;;;;;;2099322;28;20073;-73
2023/10/08 01:24:43;;;;;;;7.85;5.13;;;19.60;99.90;;;;;;2099303;28;20422;-73
2023/10/08 01:25:50;;;;;;;12.10;4.93;;;19.60;99.90;;;;;;2096983;28;20178;-73
2023/10/08 01:26:51;;;;;;;8.13;4.78;;;19.60;99.90;;;;;;2096714;28;20123;-73
2023/10/08 01:28:14;;;;;;;10.80;5.05;;;19.60;99.90;;;;;;2100216;28;20028;-73
2023/10/08 01:29:21;;;;;;;9.65;5.10;;;19.60;99.90;;;;;;2099875;28;20611;-75
2023/10/08 01:30:22;;;;;;;9.75;5.20;;;19.60;99.90;;;;;;2098399;28;20039;-73
2023/10/08 01:31:23;;;;;;;8.82;5.05;;;19.50;99.90;;;;;;2098106;28;20038;-73
2023/10/08 01:32:23;;;;;;;10.10;5.03;;;19.60;99.90;;;;;;2098986;28;20009;-73
2023/10/08 01:33:28;;;;;;;9.38;4.80;;;19.60;99.90;;;;;;2096689;28;20063;-73
2023/10/08 01:34:35;;;;;;;7.35;5.15;;;19.60;99.90;;;;;;2098642;28;20023;-73
2023/10/08 01:35:35;;;;;;;7.50;4.80;;;19.50;99.90;;;;;;2099057;28;20117;-73
2023/10/08 01:36:36;;;;;;;9.98;5.32;;;19.60;99.90;;;;;;2100464;28;20029;-73
2023/10/08 01:37:36;;;;;;;7.63;4.78;;;19.60;99.90;;;;;;2099128;28;20511;-73
2023/10/08 01:38:37;;;;;;;8.52;5.43;;;19.60;99.90;;;;;;2096751;28;20067;-73
2023/10/08 01:39:42;;;;;;;12.10;5.22;;;19.60;99.90;;;;;;2098379;28;20028;-73
2023/10/08 01:40:43;;;;;;;7.68;4.72;;;19.60;99.90;;;;;;2099010;28;20084;-73
2023/10/08 01:41:44;;;;;;;9.95;5.03;;;19.60;99.90;;;;;;2097403;28;20097;-73
2023/10/08 01:42:51;;;;;;;9.32;5.18;;;19.60;99.90;;;;;;2097502;28;20055;-73
2023/10/08 01:43:52;;;;;;;7.40;4.80;;;19.60;99.90;;;;;;2096311;28;20082;-73
2023/10/08 01:44:55;;;;;;;7.82;5.30;;;19.60;99.90;;;;;;2096523;28;20158;-73
2023/10/08 01:45:56;;;;;;;9.07;5.47;;;19.60;99.90;;;;;;2095730;28;20020;-72
2023/10/08 01:46:58;;;;;;;10.65;5.72;;;19.60;99.90;;;;;;2100716;28;20036;-73
2023/10/08 01:47:58;;;;;;;9.48;5.22;;;19.60;99.90;;;;;;2102608;28;20036;-73
2023/10/08 01:49:12;;;;;;;11.65;5.68;;;19.60;99.90;;;;;;2098636;28;20037;-73
2023/10/08 01:50:22;;;;;;;7.05;4.47;;;19.60;99.90;;;;;;2100513;28;20070;-73
2023/10/08 01:51:36;;;;;;;9.05;4.80;;;19.60;99.90;;;;;;2097378;28;20048;-73
2023/10/08 01:52:36;;;;;;;9.52;5.50;;;19.50;99.90;;;;;;2098695;28;20385;-73
2023/10/08 01:53:41;;;;;;;12.77;5.40;;;19.60;99.90;;;;;;2098010;28;20028;-73
2023/10/08 01:54:41;;;;;;;8.60;5.43;;;19.60;99.90;;;;;;2093752;28;20028;-73
2023/10/08 01:55:47;;;;;;;8.30;4.75;;;19.60;99.90;;;;;;2089173;28;20035;-71
2023/10/08 01:56:50;;;;;;;10.35;4.88;;;19.50;99.90;;;;;;2097719;28;20090;-72
2023/10/08 01:57:53;;;;;;;9.73;5.30;;;19.50;99.90;;;;;;2097763;28;20064;-72
2023/10/08 01:58:55;;;;;;;8.40;5.22;;;19.60;99.90;;;;;;2099467;28;20699;-73
2023/10/08 01:59:56;;;;;;;8.77;5.53;;;19.50;99.90;;;;;;2100791;28;20070;-73
2023/10/08 02:00:59;;;;;;;7.72;4.60;;;19.50;99.90;;;;;;2097784;28;20115;-72
2023/10/08 02:02:00;;;;;;;8.88;5.32;;;19.60;99.90;;;;;;2098650;28;20417;-72
2023/10/08 02:03:01;;;;;;;9.52;5.63;;;19.60;99.90;;;;;;2097509;28;20173;-72
2023/10/08 02:04:02;;;;;;;8.60;5.15;;;19.60;99.90;;;;;;2099715;28;20020;-72
2023/10/08 02:05:04;;;;;;;10.65;4.88;;;19.60;99.90;;;;;;2099228;28;20039;-73
2023/10/08 02:06:05;;;;;;;9.07;4.82;;;19.60;99.90;;;;;;2100472;28;20135;-74
2023/10/08 02:07:08;;;;;;;8.30;5.25;;;19.60;99.90;;;;;;2094713;28;20208;-74
2023/10/08 02:08:10;;;;;;;8.15;4.68;;;19.60;99.90;;;;;;2090873;28;20120;-74
2023/10/08 02:09:13;;;;;;;9.57;5.28;;;19.60;99.90;;;;;;2097657;28;20032;-73
2023/10/08 02:10:14;;;;;;;8.40;4.78;;;19.60;99.90;;;;;;2100107;28;20403;-74
2023/10/08 02:11:15;;;;;;;8.52;5.28;;;19.60;99.90;;;;;;2100526;28;20106;-73
2023/10/08 02:12:16;;;;;;;10.32;5.28;;;19.60;99.90;;;;;;2098001;28;20012;-73
2023/10/08 02:13:16;;;;;;;9.05;5.38;;;19.60;99.90;;;;;;2095882;28;20024;-74
2023/10/08 02:14:22;;;;;;;8.68;4.72;;;19.60;99.90;;;;;;2099067;28;20040;-74
2023/10/08 02:15:23;;;;;;;10.60;5.68;;;19.60;99.90;;;;;;2097220;28;20029;-73
2023/10/08 02:16:23;;;;;;;8.18;5.00;;;19.60;99.90;;;;;;2097683;28;20124;-73
2023/10/08 02:17:24;;;;;;;8.88;5.13;;;19.60;99.90;;;;;;2093984;28;20032;-73
2023/10/08 02:18:25;;;;;;;10.98;5.50;;;19.60;99.90;;;;;;2093881;28;20031;-72
2023/10/08 02:19:28;;;;;;;9.05;5.15;;;19.60;99.90;;;;;;2098894;28;20099;-73
2023/10/08 02:20:30;;;;;;;10.07;5.63;;;19.60;99.90;;;;;;2101085;28;20809;-73
2023/10/08 02:21:31;;;;;;;11.13;5.82;;;19.60;99.90;;;;;;2096683;28;20125;-72
2023/10/08 02:22:36;;;;;;;11.35;5.88;;;19.60;99.90;;;;;;2097188;28;20049;-72
2023/10/08 02:23:37;;;;;;;10.18;6.03;;;19.60;99.90;;;;;;2099477;28;20119;-72
2023/10/08 02:24:39;;;;;;;12.38;5.68;;;19.60;99.90;;;;;;2097786;28;20456;-74
2023/10/08 02:25:40;;;;;;;9.20;5.00;;;19.60;99.90;;;;;;2098655;28;20048;-72
2023/10/08 02:26:42;;;;;;;10.35;5.72;;;19.60;99.90;;;;;;2096917;28;20033;-72
2023/10/08 02:27:42;;;;;;;8.57;5.40;;;19.60;99.90;;;;;;2098837;28;20058;-73
2023/10/08 02:28:43;;;;;;;8.00;5.32;;;19.60;99.90;;;;;;2097486;28;20558;-73
2023/10/08 02:29:43;;;;;;;10.48;5.60;;;19.60;99.90;;;;;;2097472;28;20081;-72
2023/10/08 02:30:44;;;;;;;11.35;5.57;;;19.60;99.90;;;;;;2097501;28;20028;-72
2023/10/08 02:31:45;;;;;;;9.52;4.82;;;19.60;99.90;;;;;;2097316;28;20033;-72
2023/10/08 02:32:46;;;;;;;10.02;4.70;;;19.60;99.90;;;;;;2097589;28;20020;-73
2023/10/08 02:33:47;;;;;;;9.93;5.70;;;19.50;99.90;;;;;;2098698;28;20027;-72
2023/10/08 02:34:48;;;;;;;11.02;5.05;;;19.60;99.90;;;;;;2096960;28;20038;-72
2023/10/08 02:35:53;;;;;;;9.60;5.07;;;19.50;99.90;;;;;;2096135;28;20109;-72
2023/10/08 02:36:56;;;;;;;9.95;5.13;;;19.60;99.90;;;;;;2097832;28;20013;-73
2023/10/08 02:37:59;;;;;;;8.70;5.15;;;19.50;99.90;;;;;;2097315;28;20074;-72
2023/10/08 02:39:02;;;;;;;11.15;5.72;;;19.50;99.90;;;;;;2096857;28;20035;-72
2023/10/08 02:40:13;;;;;;;9.38;5.47;;;19.50;99.90;;;;;;2098343;28;20024;-73
2023/10/08 02:41:17;;;;;;;8.45;4.53;;;19.50;99.90;;;;;;2097611;28;20108;-73
2023/10/08 02:42:18;;;;;;;10.65;5.43;;;19.60;99.90;;;;;;2097690;28;20055;-71
2023/10/08 02:43:20;;;;;;;8.38;5.00;;;19.50;99.90;;;;;;2097205;28;20031;-72
2023/10/08 02:44:20;;;;;;;10.48;5.63;;;19.50;99.90;;;;;;2100033;28;20020;-72
2023/10/08 02:45:21;;;;;;;9.30;5.55;;;19.50;99.90;;;;;;2098765;28;20039;-72
2023/10/08 02:46:26;;;;;;;9.18;5.43;;;19.50;99.90;;;;;;2098105;28;20044;-73
2023/10/08 02:47:27;;;;;;;11.45;6.07;;;19.50;99.90;;;;;;2097062;28;20345;-72
2023/10/08 02:48:29;;;;;;;9.38;5.22;;;19.50;99.90;;;;;;2097418;28;20040;-72
2023/10/08 02:49:31;;;;;;;10.52;6.03;;;19.50;99.90;;;;;;2095696;28;20025;-73
2023/10/08 02:50:32;;;;;;;10.05;5.32;;;19.50;99.90;;;;;;2097346;28;20961;-73
2023/10/08 02:51:33;;;;;;;11.43;5.50;;;19.50;99.90;;;;;;2097050;28;20379;-73
2023/10/08 02:52:34;;;;;;;9.32;5.53;;;19.50;99.90;;;;;;2095508;28;20114;-72
2023/10/08 02:53:35;;;;;;;11.88;5.47;;;19.40;99.90;;;;;;2098205;28;20016;-73
2023/10/08 02:54:37;;;;;;;7.88;5.47;;;19.40;99.90;;;;;;2098195;28;20059;-72
2023/10/08 02:55:44;;;;;;;9.65;5.25;;;19.40;99.90;;;;;;2097554;28;20028;-72
2023/10/08 02:56:55;;;;;;;9.50;5.40;;;19.40;99.90;;;;;;2098374;28;20650;-72
2023/10/08 02:57:58;;;;;;;7.80;5.30;;;19.40;99.90;;;;;;2094416;28;20031;-73
2023/10/08 02:59:00;;;;;;;11.77;5.38;;;19.40;99.90;;;;;;2101436;28;20028;-72
2023/10/08 03:00:04;;;;;;;12.27;5.75;;;19.40;99.90;;;;;;2098705;28;20050;-72
2023/10/08 03:01:04;;;;;;;10.52;5.20;;;19.40;99.90;;;;;;2099194;28;20032;-73
2023/10/08 03:02:13;;;;;;;14.32;6.05;;;19.30;99.90;;;;;;2099577;28;20024;-73
2023/10/08 03:03:18;;;;;;;10.57;5.90;;;19.30;99.90;;;;;;2103081;28;20047;-72
2023/10/08 03:04:18;;;;;;;9.43;5.68;;;19.30;99.90;;;;;;2100347;28;20021;-72
2023/10/08 03:05:19;;;;;;;9.85;4.82;;;19.30;99.90;;;;;;2099353;28;20032;-71
2023/10/08 03:06:19;;;;;;;11.43;5.80;;;19.30;99.90;;;;;;2100460;28;20020;-72
2023/10/08 03:07:31;;;;;;;12.65;5.90;;;19.30;99.90;;;;;;2098753;28;20067;-72
2023/10/08 03:08:36;;;;;;;9.55;5.32;;;19.30;99.90;;;;;;2098600;28;20181;-71
2023/10/08 03:09:42;;;;;;;7.15;5.20;;;19.30;99.90;;;;;;2100145;28;20031;-72
2023/10/08 03:10:44;;;;;;;9.82;5.55;;;19.30;99.90;;;;;;2097545;28;20479;-72
2023/10/08 03:11:47;;;;;;;10.65;5.05;;;19.30;99.90;;;;;;2098413;28;20965;-72
2023/10/08 03:12:47;;;;;;;9.40;4.80;;;19.30;99.90;;;;;;2100520;28;20004;-72
2023/10/08 03:13:51;;;;;;;11.95;5.63;;;19.30;99.90;;;;;;2101101;28;20029;-72
2023/10/08 03:15:01;;;;;;;9.73;5.30;;;19.30;99.90;;;;;;2097321;28;20115;-73
2023/10/08 03:17:07;;;;;;;9.80;5.10;;;19.30;99.90;;;;;;2099595;28;20074;-73
2023/10/08 03:18:10;;;;;;;11.73;5.47;;;19.30;99.90;;;;;;2099467;28;20032;-72
2023/10/08 03:19:10;;;;;;;12.00;5.70;;;19.30;99.90;;;;;;2100189;28;20020;-73
2023/10/08 03:20:37;;;;;;;9.23;5.80;;;19.30;99.90;;;;;;2099581;28;20032;-73
2023/10/08 03:22:40;;;;;;;7.22;4.60;;;19.30;99.90;;;;;;2098657;28;20024;-72
2023/10/08 03:23:47;;;;;;;10.30;5.03;;;19.20;99.90;;;;;;2100915;28;20455;-72
2023/10/08 03:24:48;;;;;;;10.63;5.00;;;19.20;99.90;;;;;;2098596;28;20032;-73
2023/10/08 03:26:01;;;;;;;10.85;5.68;;;19.20;99.90;;;;;;2099721;28;20085;-71
2023/10/08 03:27:20;;;;;;;10.93;4.95;;;19.20;99.90;;;;;;2099311;28;20674;-72
2023/10/08 03:28:24;;;;;;;13.55;5.93;;;19.20;99.90;;;;;;2098453;28;20103;-71
2023/10/08 03:29:30;;;;;;;8.95;4.82;;;19.20;99.90;;;;;;2100320;28;20020;-73
2023/10/08 03:30:31;;;;;;;11.45;5.03;;;19.20;99.90;;;;;;2100053;28;20036;-72
2023/10/08 03:31:54;;;;;;;8.63;5.20;;;19.30;99.90;;;;;;2099176;28;20024;-72
2023/10/08 03:32:55;;;;;;;13.23;5.28;;;19.30;99.90;;;;;;2098239;28;20033;-72
2023/10/08 03:33:56;;;;;;;9.13;5.03;;;19.20;99.90;;;;;;2097888;28;20379;-72
2023/10/08 03:34:59;;;;;;;10.95;5.65;;;19.20;99.90;;;;;;2098112;28;20025;-72
2023/10/08 03:36:03;;;;;;;10.57;5.43;;;19.30;99.90;;;;;;2098677;28;20035;-72
2023/10/08 03:37:07;;;;;;;7.90;5.07;;;19.20;99.90;;;;;;2099558;28;20618;-71
2023/10/08 03:39:50;;;;;;;7.43;5.25;;;19.20;99.90;;;;;;2099773;28;20036;-72
2023/10/08 03:40:50;;;;;;;11.90;5.38;;;19.20;99.90;;;;;;2101619;28;20047;-73
2023/10/08 03:42:06;;;;;;;12.52;6.25;;;19.20;99.90;;;;;;2099886;28;20116;-73
2023/10/08 03:43:15;;;;;;;11.50;5.35;;;19.20;99.90;;;;;;2097862;28;20029;-71
2023/10/08 03:44:16;;;;;;;10.88;5.78;;;19.20;99.90;;;;;;2098617;28;20028;-73
2023/10/08 03:45:48;;;;;;;8.98;5.60;;;19.10;99.90;;;;;;2099094;28;20032;-71
2023/10/08 03:46:42;;;;;;;9.27;5.28;;;19.20;99.90;;;;;;2097789;28;21713;-73
2023/10/08 03:47:52;;;;;;;10.13;5.53;;;19.20;99.90;;;;;;2098381;28;20033;-73
2023/10/08 03:48:57;;;;;;;;;;;19.10;99.90;;;;;;2099762;28;20026;-73
2023/10/08 03:50:05;;;;;;;9.80;4.80;;;19.10;99.90;;;;;;2099168;28;19912;-73
2023/10/08 03:51:11;;;;;;;10.10;5.63;;;19.10;99.90;;;;;;2096808;28;20054;-74
2023/10/08 03:52:15;;;;;;;9.75;4.93;;;19.10;99.90;;;;;;2099819;28;20027;-72
2023/10/08 03:53:16;;;;;;;11.13;5.85;;;19.10;99.90;;;;;;2090971;28;20056;-73
2023/10/08 03:54:18;;;;;;;10.35;5.63;;;19.10;99.90;;;;;;2097489;28;20027;-73
2023/10/08 03:56:19;;;;;;;9.63;5.78;;;19.20;99.90;;;;;;2100417;28;20147;-73
2023/10/08 03:57:28;;;;;;;9.15;5.18;;;19.20;99.90;;;;;;2100060;28;20024;-73
2023/10/08 03:58:30;;;;;;;9.55;5.57;;;19.20;99.90;;;;;;2101956;28;20028;-73
2023/10/08 03:59:31;;;;;;;10.65;5.78;;;19.20;99.90;;;;;;2097092;28;20726;-73
2023/10/08 04:00:32;;;;;;;15.00;5.88;;;19.20;99.90;;;;;;2099004;28;20399;-73
2023/10/08 04:01:33;;;;;;;10.93;5.72;;;19.20;99.90;;;;;;2098647;28;20032;-74
2023/10/08 04:02:40;;;;;;;10.20;6.03;;;19.20;99.90;;;;;;2098687;28;20039;-73
2023/10/08 04:04:57;;;;;;;12.95;5.60;;;19.20;99.90;;;;;;2098314;28;20025;-73
2023/10/08 04:06:14;;;;;;;11.38;5.22;;;19.20;99.90;;;;;;2100437;28;20024;-74
2023/10/08 04:08:05;;;;;;;8.30;5.30;;;19.10;99.90;;;;;;2099757;28;20427;-73
2023/10/08 04:11:32;;;;;;;10.77;5.97;;;19.10;99.90;;;;;;2098533;28;20028;-73
2023/10/08 04:12:34;;;;;;;10.25;5.88;;;19.10;99.90;;;;;;2099159;28;20478;-73
2023/10/08 04:13:44;;;;;;;11.63;5.68;;;19.10;99.90;;;;;;2098928;28;20036;-73
2023/10/08 04:14:45;;;;;;;14.35;5.57;;;19.10;99.90;;;;;;2098224;28;20027;-73
2023/10/08 04:15:46;;;;;;;11.93;5.80;;;19.10;99.90;;;;;;2099485;28;20477;-73
2023/10/08 04:16:51;;;;;;;11.82;5.90;;;19.10;99.90;;;;;;2099390;28;20383;-73
2023/10/08 04:17:52;;;;;;;11.20;5.53;;;19.00;99.90;;;;;;2099286;28;21186;-72
2023/10/08 04:18:55;;;;;;;10.73;5.75;;;19.10;99.90;;;;;;2098205;28;20388;-73
2023/10/08 04:19:58;;;;;;;18.48;5.43;;;19.10;99.90;;;;;;2097657;28;20031;-73
2023/10/08 04:21:04;;;;;;;10.55;5.28;;;19.10;99.90;;;;;;2097870;28;20027;-72
2023/10/08 04:22:14;;;;;;;13.15;6.07;;;19.00;99.90;;;;;;2097796;28;20497;-71
2023/10/08 04:23:20;;;;;;;;;;;19.10;99.90;;;;;;2098368;28;20062;-72
2023/10/08 04:24:28;;;;;;;11.38;5.93;;;19.00;99.90;;;;;;2097800;28;19908;-72
2023/10/08 04:25:30;;;;;;;10.25;5.70;;;19.00;99.90;;;;;;2098418;28;20479;-72
2023/10/08 04:26:32;;;;;;;9.35;5.15;;;19.00;99.90;;;;;;2097236;28;20020;-72
2023/10/08 04:27:34;;;;;;;13.02;5.40;;;19.00;99.90;;;;;;2097073;28;20027;-71
2023/10/08 04:28:35;;;;;;;11.40;6.28;;;19.00;99.90;;;;;;2100511;28;20020;-72
2023/10/08 04:29:39;;;;;;;13.20;6.20;;;19.00;99.90;;;;;;2099619;28;20028;-72
2023/10/08 04:30:41;;;;;;;10.45;5.68;;;19.00;99.90;;;;;;2099627;28;20029;-73
2023/10/08 04:31:46;;;;;;;12.65;6.13;;;19.10;99.90;;;;;;2098141;28;20033;-73
2023/10/08 04:32:47;;;;;;;10.82;5.30;;;19.00;99.90;;;;;;2098162;28;20028;-72
2023/10/08 04:33:47;;;;;;;15.52;6.57;;;19.00;99.90;;;;;;2098681;28;20024;-73
2023/10/08 04:34:49;;;;;;;10.30;5.65;;;19.00;99.90;;;;;;2097991;28;20399;-72
2023/10/08 04:35:56;;;;;;;9.98;5.57;;;19.00;99.90;;;;;;2100990;28;20044;-72
2023/10/08 04:37:04;;;;;;;13.07;6.10;;;19.10;99.90;;;;;;2099211;28;20045;-73
2023/10/08 04:38:08;;;;;;;14.35;6.45;;;19.00;99.90;;;;;;2097683;28;20072;-72
2023/10/08 04:39:22;;;;;;;12.45;6.20;;;19.00;99.90;;;;;;2098904;28;20016;-72
2023/10/08 04:40:24;;;;;;;12.00;6.20;;;19.10;99.90;;;;;;2099756;28;20020;-72
2023/10/08 04:41:28;;;;;;;11.88;5.82;;;19.00;99.90;;;;;;2098394;28;20032;-72
2023/10/08 04:42:28;;;;;;;13.45;5.85;;;19.00;99.90;;;;;;2099798;28;20534;-72
2023/10/08 04:43:30;;;;;;;14.13;6.53;;;19.10;99.90;;;;;;2098176;28;20047;-72
2023/10/08 04:44:31;;;;;;;12.20;5.78;;;19.00;99.90;;;;;;2098854;28;20530;-72
2023/10/08 04:45:34;;;;;;;12.45;6.63;;;19.00;99.90;;;;;;2098146;28;20161;-71
2023/10/08 04:47:41;;;;;;;12.77;7.03;;;19.00;99.90;;;;;;2098232;28;20041;-72
2023/10/08 04:48:43;;;;;;;11.60;6.63;;;19.00;99.90;;;;;;2098126;28;20857;-72
2023/10/08 04:49:45;;;;;;;12.50;6.38;;;19.00;99.90;;;;;;2097793;28;20048;-72
2023/10/08 04:50:59;;;;;;;10.77;6.75;;;19.00;99.90;;;;;;2096275;28;20100;-72
2023/10/08 04:52:13;;;;;;;10.25;6.07;;;19.00;99.90;;;;;;2099140;28;20036;-72
2023/10/08 04:53:15;;;;;;;14.65;5.97;;;19.00;99.90;;;;;;2098604;28;20021;-73
2023/10/08 04:54:16;;;;;;;13.98;6.18;;;18.90;99.90;;;;;;2101601;28;20012;-73
2023/10/08 04:55:20;;;;;;;12.45;6.32;;;19.00;99.90;;;;;;2102208;28;20095;-73
2023/10/08 04:56:22;;;;;;;14.27;6.70;;;18.90;99.90;;;;;;2099105;28;20016;-73
2023/10/08 04:57:25;;;;;;;10.75;5.47;;;19.00;99.90;;;;;;2098860;28;20085;-73
2023/10/08 04:58:33;;;;;;;10.70;5.88;;;18.90;99.90;;;;;;2097929;28;20012;-73
2023/10/08 04:59:33;;;;;;;9.25;5.90;;;18.90;99.90;;;;;;2097969;28;20413;-73
2023/10/08 05:02:12;;;;;;;7.93;4.97;;;18.90;99.90;;;;;;2098761;28;20024;-73
2023/10/08 05:03:16;;;;;;;11.50;5.68;;;18.90;99.90;;;;;;2097838;28;20024;-73
2023/10/08 05:04:23;;;;;;;11.00;5.82;;;18.90;99.90;;;;;;2097655;28;20032;-73
2023/10/08 05:05:29;;;;;;;9.75;5.43;;;18.90;99.90;;;;;;2101091;28;20020;-73
2023/10/08 05:08:57;;;;;;;8.23;5.93;;;18.90;99.90;;;;;;2098922;28;20032;-74
2023/10/08 05:13:44;;;;;;;16.63;6.28;;;18.80;99.90;;;;;;2099615;28;20016;-73
2023/10/08 05:14:55;;;;;;;9.30;5.32;;;18.80;99.90;;;;;;2098766;28;20024;-73
2023/10/08 05:16:19;;;;;;;11.43;6.07;;;18.80;99.90;;;;;;2098939;28;20031;-73
2023/10/08 05:18:23;;;;;;;10.70;5.68;;;18.80;99.90;;;;;;2097407;28;20390;-73
2023/10/08 05:22:01;;;;;;;10.30;5.95;;;18.80;99.90;;;;;;2097128;28;20036;-73
2023/10/08 05:24:37;;;;;;;11.43;5.50;;;18.90;99.90;;;;;;2099514;28;20458;-73
2023/10/08 05:25:57;;;;;;;10.30;5.60;;;18.90;99.90;;;;;;2097069;28;20024;-73
2023/10/08 05:27:26;;;;;;;9.30;5.43;;;18.80;99.90;;;;;;2098596;28;20059;-73
2023/10/08 05:28:24;;;;;;;11.95;6.25;;;18.80;99.90;;;;;;2098142;28;20074;-73
2023/10/08 05:29:52;;;;;;;11.52;5.93;;;18.80;99.90;;;;;;2100031;28;20034;-73
2023/10/08 05:32:37;;;;;;;11.05;6.22;;;18.80;99.90;;;;;;2097551;28;20036;-74
2023/10/08 05:35:31;;;;;;;11.35;6.35;;;18.80;99.90;;;;;;2097764;28;20413;-73
2023/10/08 05:36:28;;;;;;;16.30;6.93;;;18.80;99.90;;;;;;2097609;28;20073;-73
2023/10/08 05:37:32;;;;;;;12.20;5.90;;;18.80;99.90;;;;;;2098768;28;20539;-73
2023/10/08 05:39:55;;;;;;;10.43;5.80;;;18.80;99.90;;;;;;2098218;28;20024;-73
2023/10/08 05:42:15;;;;;;;13.00;6.40;;;18.80;99.90;;;;;;2097248;28;20104;-74
2023/10/08 05:43:33;;;;;;;11.57;6.05;;;18.80;99.90;;;;;;2097527;28;20024;-73
2023/10/08 05:44:40;;;;;;;10.30;5.97;;;18.80;99.90;;;;;;2097817;28;20073;-73
2023/10/08 05:45:52;;;;;;;11.70;5.63;;;18.80;99.90;;;;;;2098517;28;20025;-73
2023/10/08 05:51:44;;;;;;;12.30;5.50;;;18.80;99.90;;;;;;2097890;28;20495;-73
2023/10/08 05:53:58;;;;;;;9.95;5.90;;;18.80;99.90;;;;;;2096629;28;20028;-73
2023/10/08 05:57:04;;;;;;;12.02;5.97;;;18.80;99.90;;;;;;2096716;28;20031;-73
2023/10/08 05:59:27;;;;;;;10.63;6.55;;;18.80;99.90;;;;;;2096541;28;20360;-73
2023/10/08 06:00:46;;;;;;;17.02;6.28;;;18.80;99.90;;;;;;2097344;28;20024;-73
2023/10/08 06:01:47;;;;;;;14.10;6.10;;;18.80;99.90;;;;;;2097603;28;20487;-73
2023/10/08 06:04:00;;;;;;;9.95;5.38;;;18.80;99.90;;;;;;2097857;28;20020;-73
2023/10/08 06:07:33;;;;;;;11.90;5.63;;;18.80;99.90;;;;;;2098527;28;20060;-73
2023/10/08 06:08:51;;;;;;;8.80;5.18;;;18.80;99.90;;;;;;2099021;28;20033;-73
2023/10/08 06:10:02;;;;;;;9.52;5.47;;;18.80;99.90;;;;;;2098789;28;20109;-73
2023/10/08 06:11:17;;;;;;;8.30;5.65;;;18.80;99.90;;;;;;2096414;28;20035;-74
2023/10/08 06:12:29;;;;;;;10.32;5.55;;;18.80;99.90;;;;;;2097299;28;20032;-73
2023/10/08 06:13:44;;;;;;;10.95;5.28;;;18.80;99.90;;;;;;2098460;28;20364;-73
2023/10/08 06:16:05;;;;;;;11.10;5.55;;;18.80;99.90;;;;;;2098298;28;20491;-73
2023/10/08 06:17:33;;;;;;;12.02;6.28;;;18.80;99.90;;;;;;2099594;28;20058;-73
2023/10/08 06:18:34;;;;;;;10.63;5.70;;;18.80;99.90;;;;;;2098103;28;20363;-73